Aviation Digital Data Service (ADDS)

Output produced by METARs form (1934 UTC 23 January 2019)
found at http://www.aviationweather.gov/metar/data/
 
Forecast for: LERT (ROTA NAVAL STATI, ES)
Text: TAF LERT 231700Z 2318/2403 31015KT 9999 SCT030
Forecast period: 1800 UTC 23 January 2019 to 0300 UTC 24 January 2019
Forecast type: FROM: standard forecast or significant change
Winds: from the NW (310 degrees) at 17 MPH (15 knots; 7.7 m/s)
Visibility: 6 or more miles 10+ km)
Ceiling: at least 12,000 feet AGL
Clouds: scattered clouds at 3000 feet AGL
Weather: no significant weather forecast for this period
Text: PROB40
Forecast period: 1800 UTC 23 January 2019 to 0300 UTC 24 January 2019
Forecast type: TEMPORARY: The following changes expected for less than half the time period
Winds: from the NW (310 degrees) at 18 MPH (16 knots; 8.2 m/s)
gusting to 30 MPH (26 knots; 13.4 m/s)
Visibility: missing
Ceiling: unknown
Clouds: missing
Weather: no significant weather forecast for this period